.
WxDataArchive / Data Records for 2006-07-22
2006-07-21 July 2006 2006-07-23

Data Records for Saturday, 22 July 2006

Time	Temp	Chill	HIndex	Humid	Dewpt	 Wind 	HiWind	WindDir	Rain 	Barom 
-----	----	-----	------	-----	-----	------	------	-------	-----	----- 
00:00	70.4	70.4	70.4	74	61.7	0	1	315	0.00	29.835 
00:05	70.4	70.4	70.4	74	61.7	0	2	292	0.00	29.835 
00:10	70.3	70.3	70.3	74	61.6	0	1	292	0.00	29.835 
00:15	70.3	70.3	70.3	74	61.6	0	4	270	0.00	29.824 
00:20	70.3	70.3	70.3	75	62.0	0	2	292	0.00	29.824 
00:25	70.3	70.3	70.3	75	62.0	0	1	292	0.00	29.824 
00:30	70.1	70.1	70.1	75	61.8	0	2	315	0.00	29.825 
00:35	70.1	70.1	70.1	75	61.8	0	4	292	0.00	29.825 
00:40	70.1	70.1	70.1	75	61.8	0	2	292	0.00	29.825 
00:45	69.9	69.9	69.9	76	62.0	0	2	315	0.00	29.825 
00:50	69.9	69.9	69.9	76	62.0	0	2	22	0.00	29.825 
00:55	69.9	69.9	69.9	76	62.0	0	1	22	0.00	29.825 
01:00	69.8	69.8	69.8	76	61.9	0	3	270	0.00	29.824 
01:05	69.8	69.8	69.8	77	62.3	0	3	22	0.00	29.824 
01:10	69.6	69.6	69.6	77	62.1	0	1	22	0.00	29.824 
01:15	69.6	69.6	69.6	78	62.4	0	1	22	0.00	29.825 
01:20	69.4	69.4	69.4	78	62.2	0	2	22	0.00	29.825 
01:25	69.3	69.3	69.3	79	62.5	0	3	292	0.00	29.825 
01:30	69.1	69.1	69.1	79	62.3	0	2	292	0.00	29.827 
01:35	69.1	69.1	69.1	80	62.7	0	1	292	0.00	29.827 
01:40	69.1	69.1	69.1	80	62.7	0	2	292	0.00	29.827 
01:45	68.9	68.9	68.9	80	62.5	0	1	270	0.00	29.838 
01:50	68.9	68.9	68.9	80	62.5	0	1	270	0.00	29.838 
01:55	68.9	68.9	68.9	81	62.8	0	1	270	0.00	29.838 
02:00	68.8	68.8	68.8	81	62.7	0	1	270	0.00	29.840 
02:05	68.8	68.8	68.8	81	62.7	0	1	270	0.00	29.840 
02:10	68.6	68.6	68.6	82	62.9	0	1	270	0.00	29.840 
02:15	68.4	68.4	68.4	83	63.0	0	3	112	0.00	29.832 
02:20	68.4	68.4	68.4	83	63.0	1	4	112	0.00	29.832 
02:25	68.3	68.3	68.3	84	63.3	1	3	112	0.00	29.832 
02:30	68.1	68.1	68.1	84	63.1	0	1	112	0.00	29.836 
02:35	67.9	67.9	67.9	85	63.2	0	2	112	0.00	29.836 
02:40	67.8	67.8	67.8	86	63.5	1	3	112	0.00	29.836 
02:45	67.4	67.4	67.4	85	62.7	0	2	112	0.00	29.828 
02:50	67.3	67.3	67.3	85	62.6	0	3	112	0.00	29.828 
02:55	67.1	67.1	67.1	85	62.4	0	1	112	0.01	29.828 
03:00	67.1	67.1	67.1	86	62.8	0	1	112	0.00	29.831 
03:05	66.9	66.9	66.9	87	62.9	0	1	112	0.00	29.831 
03:10	66.8	66.8	66.8	87	62.8	0	1	112	0.00	29.831 
03:15	66.4	66.4	66.4	88	62.7	0	3	112	0.00	29.828 
03:20	66.1	66.1	66.1	88	62.4	0	1	90	0.01	29.828 
03:25	66.0	66.0	66.0	88	62.3	0	1	90	0.00	29.828 
03:30	65.8	65.8	65.8	88	62.1	0	3	90	0.00	29.822 
03:35	65.6	65.6	65.6	86	61.3	1	5	90	0.00	29.822 
03:40	65.6	65.6	65.6	84	60.6	1	4	90	0.00	29.822 
03:45	65.6	65.6	65.6	85	61.0	0	2	112	0.00	29.825 
03:50	65.6	65.6	65.6	83	60.3	1	3	112	0.00	29.825 
03:55	65.6	65.6	65.6	83	60.3	0	2	112	0.00	29.825 
04:00	65.5	65.5	65.5	82	59.9	0	4	112	0.00	29.816 
04:05	65.5	65.5	65.5	83	60.2	0	1	135	0.00	29.816 
04:10	65.3	65.3	65.3	81	59.3	1	5	135	0.00	29.816 
04:15	65.5	65.5	65.5	81	59.5	0	3	68	0.00	29.814 
04:20	65.5	65.5	65.5	81	59.5	0	2	90	0.00	29.814 
04:25	65.3	65.3	65.3	82	59.7	0	1	90	0.00	29.814 
04:30	65.3	65.3	65.3	82	59.7	0	1	90	0.00	29.815 
04:35	65.3	65.3	65.3	83	60.0	0	0	---	0.00	29.815 
04:40	65.2	65.2	65.2	84	60.2	0	2	90	0.00	29.815 
04:45	65.2	65.2	65.2	84	60.2	0	2	135	0.00	29.806 
04:50	65.0	65.0	65.0	84	60.0	0	1	135	0.00	29.806 
04:55	65.0	65.0	65.0	84	60.0	0	0	---	0.00	29.806 
05:00	65.0	65.0	65.0	84	60.0	0	0	---	0.00	29.807 
05:05	65.0	65.0	65.0	85	60.4	0	1	135	0.00	29.807 
05:10	64.8	64.8	64.8	85	60.2	0	0	---	0.00	29.807 
05:15	64.8	64.8	64.8	86	60.5	0	1	135	0.00	29.809 
05:20	64.7	64.7	64.7	87	60.7	0	1	135	0.00	29.809 
05:25	64.5	64.5	64.5	87	60.5	0	1	135	0.00	29.809 
05:30	64.3	64.3	64.3	87	60.3	0	1	135	0.00	29.808 
05:35	64.2	64.2	64.2	88	60.6	0	1	135	0.00	29.808 
05:40	64.0	64.0	64.0	88	60.4	0	1	135	0.00	29.808 
05:45	63.9	63.9	63.9	88	60.3	0	1	135	0.00	29.805 
05:50	63.7	63.7	63.7	89	60.4	0	1	135	0.00	29.805 
05:55	63.5	63.5	63.5	89	60.2	0	0	---	0.00	29.805 
06:00	63.4	63.4	63.4	89	60.1	0	1	135	0.00	29.815 
06:05	63.2	63.2	63.2	90	60.2	0	1	135	0.00	29.815 
06:10	63.2	63.2	63.2	90	60.2	0	1	135	0.00	29.815 
06:15	63.1	63.1	63.1	90	60.1	0	1	135	0.00	29.820 
06:20	63.1	63.1	63.1	90	60.1	0	2	158	0.00	29.820 
06:25	63.1	63.1	63.1	89	59.8	0	2	180	0.00	29.820 
06:30	63.1	63.1	63.1	89	59.8	0	1	180	0.00	29.828 
06:35	63.1	63.1	63.1	89	59.8	0	2	180	0.00	29.828 
06:40	63.1	63.1	63.1	89	59.8	0	2	315	0.00	29.828 
06:45	62.9	62.9	62.9	89	59.6	0	1	315	0.00	29.830 
06:50	62.9	62.9	62.9	89	59.6	0	3	270	0.00	29.830 
06:55	62.9	62.9	62.9	89	59.6	0	2	270	0.00	29.830 
07:00	62.9	62.9	62.9	89	59.6	0	1	292	0.00	29.835 
07:05	62.9	62.9	62.9	89	59.6	0	1	292	0.00	29.835 
07:10	62.9	62.9	62.9	89	59.6	0	1	292	0.00	29.835 
07:15	63.1	63.1	63.1	89	59.8	0	1	292	0.00	29.837 
07:20	63.2	63.2	63.2	89	59.9	0	1	292	0.00	29.837 
07:25	63.4	63.4	63.4	89	60.1	0	1	292	0.00	29.837 
07:30	63.7	63.7	63.7	89	60.4	0	2	292	0.00	29.835 
07:35	63.9	63.9	63.9	88	60.3	0	1	292	0.00	29.835 
07:40	64.2	64.2	64.2	87	60.2	0	2	292	0.00	29.835 
07:45	64.5	64.5	64.5	87	60.5	0	1	292	0.00	29.836 
07:50	64.8	64.8	64.8	86	60.5	0	1	292	0.00	29.836 
07:55	65.0	65.0	65.0	85	60.4	0	2	292	0.00	29.836 
08:00	65.3	65.3	65.3	85	60.7	0	1	292	0.00	29.838 
08:05	65.6	65.6	65.6	84	60.6	1	5	292	0.00	29.838 
08:10	66.1	66.1	66.1	84	61.1	0	1	45	0.00	29.838 
08:15	66.4	66.4	66.4	82	60.7	0	2	45	0.00	29.838 
08:20	66.8	66.8	66.8	82	61.1	0	3	45	0.00	29.838 
08:25	66.9	66.9	66.9	81	60.9	1	4	22	0.00	29.838 
08:30	67.1	67.1	67.1	81	61.1	1	3	292	0.00	29.837 
08:35	67.6	67.6	67.6	81	61.6	1	2	22	0.00	29.837 
08:40	67.8	67.8	67.8	81	61.7	1	3	315	0.00	29.837 
08:45	68.1	68.1	68.1	79	61.3	1	2	315	0.00	29.842 
08:50	68.4	68.4	68.4	79	61.6	1	5	0	0.00	29.842 
08:55	68.9	68.9	68.9	78	61.7	1	4	0	0.00	29.842 
09:00	69.1	69.1	69.1	77	61.6	1	2	292	0.00	29.846 
09:05	69.6	69.6	69.6	75	61.3	1	4	0	0.00	29.846 
09:10	69.8	69.8	69.8	76	61.9	1	5	225	0.00	29.846 
09:15	70.1	70.1	70.1	73	61.0	2	12	45	0.00	29.845 
09:20	70.4	70.4	70.4	74	61.7	1	12	45	0.00	29.845 
09:25	70.8	70.8	70.8	73	61.7	1	3	292	0.00	29.845 
09:30	70.9	70.9	70.9	73	61.8	1	4	315	0.00	29.848 
09:35	71.3	71.3	71.3	72	61.8	1	3	22	0.00	29.848 
09:40	71.8	71.8	71.8	71	61.9	1	4	292	0.00	29.848 
09:45	72.1	72.1	72.1	71	62.2	1	3	0	0.00	29.848 
09:50	72.1	72.1	72.1	69	61.4	2	5	292	0.00	29.848 
09:55	72.5	72.5	72.5	69	61.7	1	4	22	0.00	29.848 
10:00	72.8	72.8	72.8	68	61.6	1	3	292	0.00	29.846 
10:05	72.8	72.8	72.8	69	62.0	1	4	22	0.00	29.846 
10:10	73.2	73.2	73.2	67	61.6	1	3	338	0.00	29.846 
10:15	73.0	73.0	73.0	67	61.4	1	5	292	0.00	29.846 
10:20	73.2	73.2	73.2	68	62.0	1	3	315	0.00	29.846 
10:25	73.5	73.5	73.5	66	61.4	1	5	270	0.00	29.846 
10:30	73.2	73.2	73.2	67	61.6	1	4	338	0.00	29.845 
10:35	73.2	73.2	73.2	68	62.0	1	5	90	0.00	29.845 
10:40	73.5	73.5	73.5	66	61.4	2	6	315	0.00	29.845 
10:45	73.7	73.7	73.7	67	62.0	1	3	338	0.00	29.846 
10:50	73.5	73.5	73.5	65	61.0	1	4	0	0.00	29.846 
10:55	73.3	73.3	73.3	67	61.7	1	4	338	0.00	29.846 
11:00	74.4	74.4	74.4	66	62.3	1	4	112	0.00	29.848 
11:05	75.3	75.3	77.4	64	62.3	1	4	270	0.00	29.848 
11:10	74.6	74.6	74.6	64	61.6	2	5	315	0.00	29.848 
11:15	73.7	73.7	73.7	66	61.6	1	4	292	0.00	29.852 
11:20	73.3	73.3	73.3	67	61.7	1	3	315	0.00	29.852 
11:25	74.0	74.0	74.0	67	62.3	1	3	315	0.00	29.852 
11:30	74.6	74.6	74.6	64	61.6	2	6	315	0.00	29.857 
11:35	73.7	73.7	73.7	65	61.2	2	3	292	0.00	29.857 
11:40	73.7	73.7	73.7	66	61.6	1	3	292	0.00	29.857 
11:45	74.2	74.2	74.2	65	61.7	2	4	315	0.00	29.860 
11:50	74.4	74.4	74.4	63	61.0	3	5	292	0.00	29.860 
11:55	73.9	73.9	73.9	65	61.4	1	5	292	0.00	29.860 
12:00	74.7	74.7	74.7	66	62.6	1	3	270	0.00	29.857 
12:05	75.4	75.4	77.6	60	60.5	2	6	0	0.00	29.857 
12:10	76.0	76.0	78.0	59	60.6	2	4	315	0.00	29.857 
12:15	76.5	76.5	78.4	61	62.0	2	10	270	0.00	29.857 
12:20	77.0	77.0	78.7	57	60.6	2	6	22	0.00	29.857 
12:25	77.4	77.4	79.1	61	62.9	1	3	22	0.00	29.857 
12:30	76.3	76.3	78.2	60	61.4	1	9	22	0.00	29.857 
12:35	75.8	75.8	77.9	58	59.9	1	3	315	0.00	29.857 
12:40	75.1	75.1	77.5	58	59.3	2	5	338	0.00	29.857 
12:45	75.1	75.1	77.4	60	60.2	1	3	315	0.00	29.862 
12:50	76.0	76.0	78.0	58	60.1	1	4	292	0.00	29.862 
12:55	76.7	76.7	78.5	56	59.8	1	5	315	0.00	29.862 
13:00	77.6	77.6	79.1	54	59.6	2	5	315	0.00	29.857 
13:05	77.6	77.6	79.1	53	59.1	2	4	292	0.00	29.857 
13:10	77.4	77.4	78.9	53	58.9	2	5	338	0.00	29.857 
13:15	77.7	77.7	79.3	58	61.7	1	5	270	0.00	29.857 
13:20	77.6	77.6	79.2	56	60.6	1	3	338	0.00	29.857 
13:25	77.4	77.4	79.0	55	59.9	2	4	292	0.00	29.857 
13:30	77.2	77.2	78.9	55	59.8	2	5	315	0.00	29.857 
13:35	77.7	77.7	79.2	53	59.2	2	7	270	0.00	29.857 
13:40	77.4	77.4	78.9	53	58.9	1	4	315	0.00	29.857 
13:45	77.6	77.6	79.1	53	59.1	2	3	270	0.00	29.858 
13:50	77.4	77.4	78.9	51	57.8	2	4	292	0.00	29.858 
13:55	78.3	78.3	79.4	50	58.1	1	5	315	0.00	29.858 
14:00	77.6	77.6	78.9	49	56.9	2	5	292	0.00	29.858 
14:05	78.3	78.3	79.5	51	58.7	1	4	0	0.00	29.858 
14:10	78.8	78.8	79.9	51	59.1	2	3	0	0.00	29.858 
14:15	78.5	78.5	79.5	48	57.2	2	5	270	0.00	29.854 
14:20	78.8	78.8	79.9	51	59.1	2	5	270	0.00	29.854 
14:25	78.6	78.6	79.8	52	59.5	2	4	292	0.00	29.854 
14:30	78.3	78.3	79.6	52	59.2	2	5	248	0.00	29.856 
14:35	78.6	78.6	80.0	55	61.1	1	4	338	0.00	29.856 
14:40	79.2	79.2	80.3	52	60.0	1	3	292	0.00	29.856 
14:45	79.8	79.8	80.6	50	59.5	1	3	315	0.00	29.860 
14:50	79.6	79.6	80.4	49	58.7	2	5	315	0.00	29.860 
14:55	79.4	79.4	80.1	47	57.4	2	5	270	0.00	29.860 
15:00	79.4	79.4	80.5	52	60.2	2	6	292	0.00	29.855 
15:05	79.6	79.6	80.3	48	58.2	2	5	315	0.00	29.855 
15:10	79.0	79.0	79.8	47	57.0	1	4	22	0.00	29.855 
15:15	78.5	78.5	79.5	48	57.2	1	4	292	0.00	29.861 
15:20	79.0	79.0	79.9	49	58.2	2	5	315	0.00	29.861 
15:25	78.8	78.8	80.0	53	60.2	1	3	292	0.00	29.861 
15:30	79.0	79.0	80.0	50	58.7	2	5	292	0.00	29.861 
15:35	79.4	79.4	80.2	49	58.5	1	5	338	0.00	29.861 
15:40	78.1	78.1	79.3	50	57.9	1	4	292	0.00	29.861 
15:45	78.8	78.8	79.8	50	58.6	1	4	270	0.00	29.859 
15:50	79.8	79.8	80.2	45	56.5	1	4	292	0.00	29.859 
15:55	80.3	80.3	81.0	49	59.4	1	2	270	0.00	29.859 
16:00	79.9	79.9	80.4	46	57.2	1	4	292	0.00	29.860 
16:05	79.4	79.4	79.9	45	56.2	1	4	292	0.00	29.860 
16:10	79.0	79.0	79.7	46	56.4	1	6	292	0.00	29.860 
16:15	79.4	79.4	80.0	46	56.8	1	4	292	0.00	29.862 
16:20	79.4	79.4	79.8	44	55.6	2	4	292	0.00	29.862 
16:25	79.0	79.0	79.6	44	55.2	1	4	292	0.00	29.862 
16:30	79.2	79.2	79.9	47	57.2	0	1	292	0.00	29.859 
16:35	79.6	79.6	80.1	46	57.0	1	3	292	0.00	29.859 
16:40	78.8	78.8	79.5	45	55.6	1	5	45	0.00	29.859 
16:45	78.1	78.1	79.2	47	56.2	1	2	292	0.00	29.856 
16:50	77.4	77.4	78.8	48	56.1	1	3	338	0.00	29.856 
16:55	78.1	78.1	79.4	51	58.5	1	4	270	0.00	29.856 
17:00	78.1	78.1	79.3	50	57.9	1	4	0	0.00	29.854 
17:05	78.5	78.5	79.5	48	57.2	1	4	22	0.00	29.854 
17:10	79.0	79.0	79.8	48	57.6	1	5	292	0.00	29.854 
17:15	78.6	78.6	79.5	48	57.2	2	6	0	0.00	29.852 
17:20	78.8	78.8	79.6	47	56.8	1	4	22	0.00	29.852 
17:25	79.0	79.0	79.7	46	56.4	2	6	270	0.00	29.852 
17:30	78.6	78.6	79.3	44	54.8	2	6	270	0.00	29.852 
17:35	78.3	78.3	79.2	45	55.2	1	5	315	0.00	29.852 
17:40	78.5	78.5	79.3	45	55.4	1	5	315	0.00	29.852 
17:45	78.6	78.6	79.4	45	55.5	1	4	270	0.00	29.850 
17:50	78.5	78.5	79.4	46	56.0	1	3	0	0.00	29.850 
17:55	77.7	77.7	78.9	47	55.8	1	3	338	0.00	29.850 
18:00	77.0	77.0	78.5	48	55.8	1	2	270	0.00	29.851 
18:05	76.8	76.8	78.5	50	56.7	1	3	292	0.00	29.851 
18:10	76.5	76.5	78.3	50	56.5	1	4	248	0.00	29.851 
18:15	76.5	76.5	78.3	50	56.5	1	3	270	0.00	29.851 
18:20	76.3	76.3	78.2	50	56.3	1	3	292	0.00	29.851 
18:25	76.5	76.5	78.3	50	56.5	1	5	270	0.00	29.851 
18:30	77.0	77.0	78.6	50	56.9	1	3	292	0.00	29.849 
18:35	77.2	77.2	78.6	47	55.4	1	2	315	0.00	29.849 
18:40	77.0	77.0	78.5	47	55.2	1	4	270	0.00	29.849 
18:45	76.8	76.8	78.4	47	55.0	1	5	45	0.00	29.851 
18:50	76.5	76.5	78.3	47	54.7	1	3	315	0.00	29.851 
18:55	76.3	76.3	78.2	48	55.1	1	3	292	0.00	29.851 
19:00	76.1	76.1	78.1	47	54.4	1	4	292	0.00	29.854 
19:05	76.0	76.0	78.0	47	54.3	1	5	292	0.00	29.854 
19:10	75.8	75.8	78.0	49	55.3	0	2	292	0.00	29.854 
19:15	75.8	75.8	78.0	48	54.7	0	2	338	0.00	29.853 
19:20	75.6	75.6	77.9	47	53.9	0	2	338	0.00	29.853 
19:25	75.6	75.6	77.9	50	55.6	0	2	292	0.00	29.853 
19:30	75.4	75.4	77.8	48	54.3	1	4	292	0.00	29.856 
19:35	75.1	75.1	77.7	50	55.2	1	2	22	0.00	29.856 
19:40	74.9	74.9	74.9	49	54.4	1	4	270	0.00	29.856 
19:45	74.6	74.6	74.6	50	54.7	1	3	292	0.00	29.865 
19:50	74.4	74.4	74.4	51	55.1	0	2	292	0.00	29.865 
19:55	74.2	74.2	74.2	52	55.4	0	2	292	0.00	29.865 
20:00	74.0	74.0	74.0	52	55.2	0	2	270	0.00	29.868 
20:05	73.9	73.9	73.9	53	55.7	0	1	270	0.00	29.868 
20:10	73.7	73.7	73.7	54	56.0	0	1	270	0.00	29.868 
20:15	73.5	73.5	73.5	55	56.3	0	2	270	0.00	29.864 
20:20	73.2	73.2	73.2	56	56.5	0	0	---	0.00	29.864 
20:25	73.0	73.0	73.0	55	55.9	0	0	---	0.00	29.864 
20:30	72.7	72.7	72.7	55	55.6	0	0	---	0.00	29.866 
20:35	72.5	72.5	72.5	55	55.4	0	1	270	0.00	29.866 
20:40	72.3	72.3	72.3	55	55.2	0	1	270	0.00	29.866 
20:45	72.1	72.1	72.1	56	55.5	0	0	---	0.00	29.872 
20:50	71.8	71.8	71.8	57	55.7	0	0	---	0.00	29.872 
20:55	71.5	71.5	71.5	58	55.9	0	0	---	0.00	29.872 
21:00	70.9	70.9	70.9	58	55.4	0	0	---	0.00	29.877 
21:05	70.6	70.6	70.6	59	55.6	0	0	---	0.00	29.877 
21:10	70.3	70.3	70.3	60	55.7	0	0	---	0.00	29.877 
21:15	69.8	69.8	69.8	61	55.7	0	0	---	0.00	29.876 
21:20	69.4	69.4	69.4	62	55.8	0	0	---	0.00	29.876 
21:25	69.1	69.1	69.1	62	55.5	0	0	---	0.00	29.876 
21:30	68.9	68.9	68.9	62	55.3	0	0	---	0.00	29.879 
21:35	68.6	68.6	68.6	63	55.5	0	0	---	0.00	29.879 
21:40	68.4	68.4	68.4	64	55.7	0	0	---	0.00	29.879 
21:45	68.1	68.1	68.1	65	55.9	0	0	---	0.00	29.883 
21:50	67.9	67.9	67.9	66	56.1	0	0	---	0.00	29.883 
21:55	67.6	67.6	67.6	66	55.8	0	0	---	0.00	29.883 
22:00	67.4	67.4	67.4	67	56.1	0	0	---	0.00	29.887 
22:05	67.4	67.4	67.4	67	56.1	0	0	---	0.00	29.887 
22:10	67.3	67.3	67.3	68	56.4	0	0	---	0.00	29.887 
22:15	67.1	67.1	67.1	69	56.6	0	0	---	0.00	29.897 
22:20	66.9	66.9	66.9	68	56.0	0	0	---	0.00	29.897 
22:25	66.9	66.9	66.9	69	56.4	0	0	---	0.00	29.897 
22:30	66.6	66.6	66.6	69	56.1	0	0	---	0.00	29.899 
22:35	66.3	66.3	66.3	70	56.2	0	0	---	0.00	29.899 
22:40	66.1	66.1	66.1	71	56.4	0	0	---	0.00	29.899 
22:45	65.8	65.8	65.8	72	56.5	0	0	---	0.00	29.899 
22:50	65.6	65.6	65.6	72	56.3	0	0	---	0.00	29.899 
22:55	65.6	65.6	65.6	73	56.7	0	0	---	0.00	29.899 
23:00	65.6	65.6	65.6	73	56.7	0	0	---	0.00	29.899 
23:05	65.5	65.5	65.5	73	56.6	0	0	---	0.00	29.899 
23:10	65.2	65.2	65.2	74	56.7	0	0	---	0.00	29.899 
23:15	65.0	65.0	65.0	74	56.5	0	0	---	0.00	29.899 
23:20	64.8	64.8	64.8	74	56.3	0	0	---	0.00	29.899 
23:25	64.7	64.7	64.7	75	56.6	0	0	---	0.00	29.899 
23:30	64.5	64.5	64.5	75	56.4	0	0	---	0.00	29.903 
23:35	64.3	64.3	64.3	75	56.2	0	0	---	0.00	29.903 
23:40	64.2	64.2	64.2	75	56.1	0	0	---	0.00	29.903 
23:45	64.0	64.0	64.0	76	56.3	0	0	---	0.00	29.907 
23:50	64.2	64.2	64.2	75	56.1	0	0	---	0.00	29.907 
23:55	64.2	64.2	64.2	76	56.5	0	0	---	0.00	29.907 

CoCoRaHS
IN-AL-39
A2 Web Hosting
Creative Commons License
GoDaddy
Look for:

loaded 2017-10-16 18:10:25 • last modified 2010-11-18 10:43:29
Privacy PolicyDisclaimer
• wx.awcolley.com is powered by PmWiki v.2002016 •
• all content (unless otherwise noted) © 2017 A W Colley